Time;durP1;ratioP1;P1;durP2;ratioP2;P2;SDS_P1;SDS_P2;PMS_P1;PMS_P2;Temp;Humidity;BMP_temperature;BMP_pressure;BME280_temperature;BME280_humidity;BME280_pressure;Samples;Min_cycle;Max_cycle;Signal;HPM_P1;HPM_P2
2022/02/26 00:02:25;;;;;;;;;;;;;;;;;;5034925;28;19909;-68
2022/02/26 00:04:51;;;;;;;;;;;;;;;;;;5034587;28;19935;-68
2022/02/26 00:07:17;;;;;;;;;;;;;;;;;;5015938;28;20393;-68
2022/02/26 00:09:43;;;;;;;;;;;;;;;;;;5034519;28;20392;-68
2022/02/26 00:12:09;;;;;;;;;;;;;;;;;;5034856;28;19909;-69
2022/02/26 00:14:35;;;;;;;;;;;;;;;;;;5034068;28;19916;-68
2022/02/26 00:17:01;;;;;;;;;;;;;;;;;;5034377;28;19936;-68
2022/02/26 00:19:27;;;;;;;;;;;;;;;;;;5034273;28;20362;-69
2022/02/26 00:21:54;;;;;;;;;;;;;;;;;;5034075;28;19909;-68
2022/02/26 00:24:20;;;;;;;;;;;;;;;;;;5034168;28;19910;-69
2022/02/26 00:26:46;;;;;;;;;;;;;;;;;;5034701;28;19917;-69
2022/02/26 00:29:12;;;;;;;;;;;;;;;;;;5033865;28;19910;-69
2022/02/26 00:31:38;;;;;;;;;;;;;;;;;;5034273;28;19916;-69
2022/02/26 00:34:04;;;;;;;;;;;;;;;;;;5034400;28;20336;-69
2022/02/26 00:36:30;;;;;;;;;;;;;;;;;;5033781;28;19959;-69
2022/02/26 00:38:56;;;;;;;;;;;;;;;;;;5034025;28;19928;-68
2022/02/26 00:41:22;;;;;;;;;;;;;;;;;;5034127;28;19948;-69
2022/02/26 00:43:48;;;;;;;;;;;;;;;;;;5033643;28;19988;-69
2022/02/26 00:46:14;;;;;;;;;;;;;;;;;;5034111;28;19941;-69
2022/02/26 00:51:25;;;;;;;;;;;;;;;;;;5033994;28;19932;-69
2022/02/26 00:53:51;;;;;;;;;;;;;;;;;;5034154;28;20358;-68
2022/02/26 00:56:17;;;;;;;;;;;;;;;;;;5033526;28;19941;-69
2022/02/26 00:58:43;;;;;;;;;;;;;;;;;;5033692;28;20373;-69
2022/02/26 01:01:09;;;;;;;;;;;;;;;;;;5033938;28;19944;-69
2022/02/26 01:03:35;;;;;;;;;;;;;;;;;;5033442;28;20285;-69
2022/02/26 01:06:01;;;;;;;;;;;;;;;;;;5033781;28;19913;-69
2022/02/26 01:08:27;;;;;;;;;;;;;;;;;;5034385;28;19992;-68
2022/02/26 01:10:53;;;;;;;;;;;;;;;;;;5033431;28;20292;-69
2022/02/26 01:13:19;;;;;;;;;;;;;;;;;;5033610;28;19916;-69
2022/02/26 01:15:45;;;;;;;;;;;;;;;;;;5033801;28;19909;-69
2022/02/26 01:18:11;;;;;;;;;;;;;;;;;;5033162;28;20281;-69
2022/02/26 01:20:37;;;;;;;;;;;;;;;;;;5036477;28;19955;-69
2022/02/26 01:23:03;;;;;;;;;;;;;;;;;;5037609;28;19963;-69
2022/02/26 01:25:28;;;;;;;;;;;;;;;;;;5037178;28;20322;-69
2022/02/26 01:27:54;;;;;;;;;;;;;;;;;;5037521;28;19952;-69
2022/02/26 01:30:20;;;;;;;;;;;;;;;;;;5037691;28;19913;-69
2022/02/26 01:32:46;;;;;;;;;;;;;;;;;;5037040;28;20273;-69
2022/02/26 01:35:12;;;;;;;;;;;;;;;;;;5037395;28;19916;-69
2022/02/26 01:37:38;;;;;;;;;;;;;;;;;;5037335;28;19917;-69
2022/02/26 01:40:04;;;;;;;;;;;;;;;;;;5019184;28;19909;-69
2022/02/26 01:42:30;;;;;;;;;;;;;;;;;;5037288;28;20008;-69
2022/02/26 01:44:56;;;;;;;;;;;;;;;;;;5037246;28;20427;-69
2022/02/26 01:47:22;;;;;;;;;;;;;;;;;;5036784;28;19909;-69
2022/02/26 01:49:48;;;;;;;;;;;;;;;;;;5037135;28;19909;-69
2022/02/26 01:52:14;;;;;;;;;;;;;;;;;;5036711;28;20379;-69
2022/02/26 01:54:40;;;;;;;;;;;;;;;;;;5037023;28;19920;-69
2022/02/26 01:57:06;;;;;;;;;;;;;;;;;;5036836;28;19936;-69
2022/02/26 01:59:32;;;;;;;;;;;;;;;;;;5036566;28;20026;-70
2022/02/26 02:01:58;;;;;;;;;;;;;;;;;;5037010;28;19913;-69
2022/02/26 02:04:24;;;;;;;;;;;;;;;;;;5036848;28;19916;-68
2022/02/26 02:06:50;;;;;;;;;;;;;;;;;;5036482;28;19917;-68
2022/02/26 02:09:16;;;;;;;;;;;;;;;;;;5037007;28;20008;-69
2022/02/26 02:11:42;;;;;;;;;;;;;;;;;;5018976;28;19915;-69
2022/02/26 02:14:08;;;;;;;;;;;;;;;;;;5036302;28;19913;-69
2022/02/26 02:16:34;;;;;;;;;;;;;;;;;;5019017;28;19916;-69
2022/02/26 02:19:00;;;;;;;;;;;;;;;;;;5036472;28;20285;-69
2022/02/26 02:21:26;;;;;;;;;;;;;;;;;;5036140;28;20008;-68
2022/02/26 02:23:52;;;;;;;;;;;;;;;;;;5036669;28;19916;-69
2022/02/26 02:26:18;;;;;;;;;;;;;;;;;;5036445;28;19917;-69
2022/02/26 02:28:44;;;;;;;;;;;;;;;;;;5036123;28;19909;-69
2022/02/26 02:31:10;;;;;;;;;;;;;;;;;;5036005;28;19909;-69
2022/02/26 02:33:36;;;;;;;;;;;;;;;;;;5036327;28;19916;-69
2022/02/26 02:36:02;;;;;;;;;;;;;;;;;;5035942;28;19944;-69
2022/02/26 02:38:28;;;;;;;;;;;;;;;;;;5036167;28;19917;-69
2022/02/26 02:40:54;;;;;;;;;;;;;;;;;;5036165;28;19909;-69
2022/02/26 02:43:20;;;;;;;;;;;;;;;;;;5035822;28;20350;-69
2022/02/26 02:45:46;;;;;;;;;;;;;;;;;;5036279;28;19953;-69
2022/02/26 02:48:12;;;;;;;;;;;;;;;;;;5036070;28;19909;-69
2022/02/26 02:50:38;;;;;;;;;;;;;;;;;;5035706;28;20353;-69
2022/02/26 02:53:04;;;;;;;;;;;;;;;;;;5035972;28;19988;-69
2022/02/26 02:55:29;;;;;;;;;;;;;;;;;;5035511;28;19910;-69
2022/02/26 02:57:55;;;;;;;;;;;;;;;;;;5028980;28;20296;-70
2022/02/26 03:00:21;;;;;;;;;;;;;;;;;;5055707;28;19909;-69
2022/02/26 03:02:47;;;;;;;;;;;;;;;;;;5055593;28;19909;-69
2022/02/26 03:05:15;;;;;;;;;;;;;;;;;;5055690;28;20416;-69
2022/02/26 03:07:41;;;;;;;;;;;;;;;;;;5055630;28;19919;-69
2022/02/26 03:10:07;;;;;;;;;;;;;;;;;;5055491;28;19909;-68
2022/02/26 03:12:33;;;;;;;;;;;;;;;;;;5055537;28;20296;-69
2022/02/26 03:14:59;;;;;;;;;;;;;;;;;;5055492;28;19916;-69
2022/02/26 03:17:25;;;;;;;;;;;;;;;;;;5055016;28;19955;-69
2022/02/26 03:19:51;;;;;;;;;;;;;;;;;;5055438;28;19913;-70
2022/02/26 03:22:17;;;;;;;;;;;;;;;;;;5055478;28;20008;-69
2022/02/26 03:24:43;;;;;;;;;;;;;;;;;;5055200;28;19909;-69
2022/02/26 03:27:09;;;;;;;;;;;;;;;;;;5055282;28;19908;-69
2022/02/26 03:29:35;;;;;;;;;;;;;;;;;;5055197;28;19976;-69
2022/02/26 03:32:01;;;;;;;;;;;;;;;;;;5054755;28;19917;-69
2022/02/26 03:34:27;;;;;;;;;;;;;;;;;;5055107;28;19909;-69
2022/02/26 03:36:56;;;;;;;;;;;;;;;;;;5055058;28;19940;-69
2022/02/26 03:39:22;;;;;;;;;;;;;;;;;;5054472;28;19916;-69
2022/02/26 03:41:48;;;;;;;;;;;;;;;;;;5054587;28;19991;-69
2022/02/26 03:44:14;;;;;;;;;;;;;;;;;;5054736;28;20377;-69
2022/02/26 03:46:40;;;;;;;;;;;;;;;;;;5054418;28;19909;-70
2022/02/26 03:49:06;;;;;;;;;;;;;;;;;;5054934;28;19909;-69
2022/02/26 03:51:31;;;;;;;;;;;;;;;;;;5054758;28;19909;-69
2022/02/26 03:53:57;;;;;;;;;;;;;;;;;;5054338;28;19947;-69
2022/02/26 03:56:23;;;;;;;;;;;;;;;;;;5054639;28;19913;-69
2022/02/26 03:58:51;;;;;;;;;;;;;;;;;;5039384;28;19968;-69
2022/02/26 04:01:17;;;;;;;;;;;;;;;;;;5034808;28;19909;-69
2022/02/26 04:03:43;;;;;;;;;;;;;;;;;;5034558;28;19916;-69
2022/02/26 04:06:09;;;;;;;;;;;;;;;;;;5016497;28;19909;-69
2022/02/26 04:08:35;;;;;;;;;;;;;;;;;;5034474;28;19913;-69
2022/02/26 04:11:01;;;;;;;;;;;;;;;;;;5034620;28;20312;-68
2022/02/26 04:13:26;;;;;;;;;;;;;;;;;;5016294;28;19917;-69
2022/02/26 04:15:52;;;;;;;;;;;;;;;;;;5034849;28;19909;-69
2022/02/26 04:18:18;;;;;;;;;;;;;;;;;;5034320;28;20284;-69
2022/02/26 04:20:44;;;;;;;;;;;;;;;;;;5033952;28;19951;-69
2022/02/26 04:23:10;;;;;;;;;;;;;;;;;;5034344;28;19913;-69
2022/02/26 04:25:36;;;;;;;;;;;;;;;;;;5016516;28;19916;-69
2022/02/26 04:28:02;;;;;;;;;;;;;;;;;;5016064;28;19909;-69
2022/02/26 04:30:28;;;;;;;;;;;;;;;;;;5034152;28;19909;-69
2022/02/26 04:32:54;;;;;;;;;;;;;;;;;;5034398;28;19909;-69
2022/02/26 04:35:20;;;;;;;;;;;;;;;;;;5033760;28;19967;-69
2022/02/26 04:37:46;;;;;;;;;;;;;;;;;;5033963;28;19917;-69
2022/02/26 04:40:13;;;;;;;;;;;;;;;;;;5034206;28;19956;-69
2022/02/26 04:42:39;;;;;;;;;;;;;;;;;;5033585;28;20338;-69
2022/02/26 04:45:05;;;;;;;;;;;;;;;;;;5033979;28;19955;-69
2022/02/26 04:47:31;;;;;;;;;;;;;;;;;;5033848;28;19945;-69
2022/02/26 04:49:57;;;;;;;;;;;;;;;;;;5015796;28;20364;-69
2022/02/26 04:52:23;;;;;;;;;;;;;;;;;;5033854;28;19916;-69
2022/02/26 04:54:49;;;;;;;;;;;;;;;;;;5033970;28;19995;-69
2022/02/26 04:57:15;;;;;;;;;;;;;;;;;;5033258;28;20366;-69
2022/02/26 04:59:41;;;;;;;;;;;;;;;;;;5033677;28;19932;-70
2022/02/26 05:02:07;;;;;;;;;;;;;;;;;;5033375;28;19960;-70
2022/02/26 05:04:33;;;;;;;;;;;;;;;;;;5033562;28;19955;-69
2022/02/26 05:06:59;;;;;;;;;;;;;;;;;;5015876;28;19909;-68
2022/02/26 05:09:25;;;;;;;;;;;;;;;;;;5033315;28;19913;-69
2022/02/26 05:11:51;;;;;;;;;;;;;;;;;;5016001;28;19987;-69
2022/02/26 05:14:17;;;;;;;;;;;;;;;;;;5033613;28;20491;-70
2022/02/26 05:16:44;;;;;;;;;;;;;;;;;;5033265;28;19909;-70
2022/02/26 05:19:09;;;;;;;;;;;;;;;;;;5033867;28;20278;-70
2022/02/26 05:21:35;;;;;;;;;;;;;;;;;;5015931;28;19909;-70
2022/02/26 05:24:01;;;;;;;;;;;;;;;;;;5033209;28;19979;-70
2022/02/26 05:26:27;;;;;;;;;;;;;;;;;;5033835;28;19952;-69
2022/02/26 05:28:53;;;;;;;;;;;;;;;;;;5033693;28;20372;-69
2022/02/26 05:31:19;;;;;;;;;;;;;;;;;;5033187;28;19996;-69
2022/02/26 05:33:46;;;;;;;;;;;;;;;;;;5033477;28;20305;-70
2022/02/26 05:36:12;;;;;;;;;;;;;;;;;;5033760;28;20405;-70
2022/02/26 05:38:38;;;;;;;;;;;;;;;;;;5032922;28;20003;-70
2022/02/26 05:41:07;;;;;;;;;;;;;;;;;;5033324;28;20324;-70
2022/02/26 05:43:33;;;;;;;;;;;;;;;;;;5033489;28;19932;-70
2022/02/26 05:45:59;;;;;;;;;;;;;;;;;;5032987;28;20357;-70
2022/02/26 05:48:25;;;;;;;;;;;;;;;;;;5033359;28;19909;-70
2022/02/26 05:50:51;;;;;;;;;;;;;;;;;;5033197;28;20051;-70
2022/02/26 05:53:17;;;;;;;;;;;;;;;;;;5032917;28;20401;-70
2022/02/26 05:55:43;;;;;;;;;;;;;;;;;;5033221;28;19909;-70
2022/02/26 05:58:09;;;;;;;;;;;;;;;;;;5032999;28;19927;-70
2022/02/26 06:00:34;;;;;;;;;;;;;;;;;;5015140;28;20357;-70
2022/02/26 06:03:00;;;;;;;;;;;;;;;;;;5033184;28;19913;-70
2022/02/26 06:05:26;;;;;;;;;;;;;;;;;;5033639;28;19909;-70
2022/02/26 06:07:52;;;;;;;;;;;;;;;;;;5036818;28;19909;-69
2022/02/26 06:10:18;;;;;;;;;;;;;;;;;;5036712;28;19999;-69
2022/02/26 06:12:44;;;;;;;;;;;;;;;;;;5036758;28;20009;-70
2022/02/26 06:15:11;;;;;;;;;;;;;;;;;;5018906;28;19988;-70
2022/02/26 06:17:37;;;;;;;;;;;;;;;;;;5036605;28;19909;-70
2022/02/26 06:20:03;;;;;;;;;;;;;;;;;;5018492;28;20376;-69
2022/02/26 06:22:29;;;;;;;;;;;;;;;;;;5036458;28;19945;-69
2022/02/26 06:24:55;;;;;;;;;;;;;;;;;;5036446;28;19909;-69
2022/02/26 06:27:21;;;;;;;;;;;;;;;;;;5036063;28;19936;-69
2022/02/26 06:29:46;;;;;;;;;;;;;;;;;;5036342;28;19912;-69
2022/02/26 06:32:12;;;;;;;;;;;;;;;;;;5036426;28;19909;-69
2022/02/26 06:34:38;;;;;;;;;;;;;;;;;;5018155;28;20340;-69
2022/02/26 06:37:04;;;;;;;;;;;;;;;;;;5036394;28;19916;-69
2022/02/26 06:39:30;;;;;;;;;;;;;;;;;;5036197;28;19947;-69
2022/02/26 06:41:56;;;;;;;;;;;;;;;;;;5035739;28;20367;-69
2022/02/26 06:44:22;;;;;;;;;;;;;;;;;;5036181;28;19964;-69
2022/02/26 06:46:48;;;;;;;;;;;;;;;;;;5036110;28;19959;-69
2022/02/26 06:49:14;;;;;;;;;;;;;;;;;;5035794;28;19909;-69
2022/02/26 06:51:40;;;;;;;;;;;;;;;;;;5036015;28;19920;-69
2022/02/26 06:54:06;;;;;;;;;;;;;;;;;;5035833;28;19913;-70
2022/02/26 06:56:33;;;;;;;;;;;;;;;;;;5035502;28;19920;-69
2022/02/26 06:58:59;;;;;;;;;;;;;;;;;;5035596;28;19967;-70
2022/02/26 07:01:25;;;;;;;;;;;;;;;;;;5035724;28;19909;-70
2022/02/26 07:03:51;;;;;;;;;;;;;;;;;;5035267;28;19920;-69
2022/02/26 07:06:17;;;;;;;;;;;;;;;;;;5035619;28;19936;-69
2022/02/26 07:08:43;;;;;;;;;;;;;;;;;;5035326;28;20047;-69
2022/02/26 07:11:09;;;;;;;;;;;;;;;;;;5035674;28;19947;-70
2022/02/26 07:13:35;;;;;;;;;;;;;;;;;;5036047;28;19909;-70
2022/02/26 07:16:01;;;;;;;;;;;;;;;;;;5017342;28;19952;-70
2022/02/26 07:18:27;;;;;;;;;;;;;;;;;;5035650;28;20014;-70
2022/02/26 07:20:53;;;;;;;;;;;;;;;;;;5035394;28;19909;-70
2022/02/26 07:23:19;;;;;;;;;;;;;;;;;;5034990;28;19916;-70
2022/02/26 07:25:45;;;;;;;;;;;;;;;;;;5035262;28;19909;-69
2022/02/26 07:28:11;;;;;;;;;;;;;;;;;;5035181;28;19909;-70
2022/02/26 07:30:37;;;;;;;;;;;;;;;;;;5034739;28;19979;-69
2022/02/26 07:33:03;;;;;;;;;;;;;;;;;;5035209;28;19932;-70
2022/02/26 07:35:29;;;;;;;;;;;;;;;;;;5035178;28;19917;-70
2022/02/26 07:37:55;;;;;;;;;;;;;;;;;;5034536;28;20289;-70
2022/02/26 07:40:21;;;;;;;;;;;;;;;;;;5017242;28;20008;-70
2022/02/26 07:42:48;;;;;;;;;;;;;;;;;;5035264;28;20411;-70
2022/02/26 07:45:14;;;;;;;;;;;;;;;;;;5034516;28;19951;-69
2022/02/26 07:47:40;;;;;;;;;;;;;;;;;;5017106;28;19920;-70
2022/02/26 07:50:06;;;;;;;;;;;;;;;;;;5034969;28;19909;-69
2022/02/26 07:52:32;;;;;;;;;;;;;;;;;;5016616;28;20273;-70
2022/02/26 07:54:58;;;;;;;;;;;;;;;;;;5034739;28;19909;-70
2022/02/26 07:57:25;;;;;;;;;;;;;;;;;;5034722;28;19917;-70
2022/02/26 07:59:52;;;;;;;;;;;;;;;;;;5034378;28;19917;-70
2022/02/26 08:02:18;;;;;;;;;;;;;;;;;;5034555;28;19943;-70
2022/02/26 08:04:44;;;;;;;;;;;;;;;;;;5034519;28;19915;-70
2022/02/26 08:07:12;;;;;;;;;;;;;;;;;;5034143;28;19909;-70
2022/02/26 08:09:38;;;;;;;;;;;;;;;;;;5034394;28;19939;-70
2022/02/26 08:12:03;;;;;;;;;;;;;;;;;;5033977;28;19916;-70
2022/02/26 08:14:29;;;;;;;;;;;;;;;;;;5034369;28;19936;-70
2022/02/26 08:16:55;;;;;;;;;;;;;;;;;;5034686;28;19920;-70
2022/02/26 08:19:21;;;;;;;;;;;;;;;;;;5016306;28;20393;-70
2022/02/26 08:21:47;;;;;;;;;;;;;;;;;;5034163;28;19987;-70
2022/02/26 08:24:14;;;;;;;;;;;;;;;;;;5034227;28;19956;-70
2022/02/26 08:26:41;;;;;;;;;;;;;;;;;;5015959;28;20285;-70
2022/02/26 08:29:06;;;;;;;;;;;;;;;;;;5033653;28;20369;-70
2022/02/26 08:31:32;;;;;;;;;;;;;;;;;;5034108;28;20024;-70
2022/02/26 08:33:58;;;;;;;;;;;;;;;;;;5033602;28;19916;-70
2022/02/26 08:36:24;;;;;;;;;;;;;;;;;;5033950;28;20381;-70
2022/02/26 08:38:50;;;;;;;;;;;;;;;;;;5033845;28;19928;-69
2022/02/26 08:41:17;;;;;;;;;;;;;;;;;;5015920;28;19987;-70
2022/02/26 08:43:43;;;;;;;;;;;;;;;;;;5033732;28;19909;-69
2022/02/26 08:46:09;;;;;;;;;;;;;;;;;;5034187;28;19916;-69
2022/02/26 08:48:35;;;;;;;;;;;;;;;;;;5033487;28;19909;-69
2022/02/26 08:51:01;;;;;;;;;;;;;;;;;;5015980;28;19963;-70
2022/02/26 08:53:27;;;;;;;;;;;;;;;;;;5033807;28;19924;-69
2022/02/26 08:55:53;;;;;;;;;;;;;;;;;;5033354;28;19932;-70
2022/02/26 08:58:20;;;;;;;;;;;;;;;;;;5033537;28;19921;-70
2022/02/26 09:00:46;;;;;;;;;;;;;;;;;;5033676;28;19916;-70
2022/02/26 09:03:13;;;;;;;;;;;;;;;;;;5033449;28;19909;-70
2022/02/26 09:05:39;;;;;;;;;;;;;;;;;;5033931;28;19917;-70
2022/02/26 09:08:04;;;;;;;;;;;;;;;;;;5015834;28;20297;-68
2022/02/26 09:10:30;;;;;;;;;;;;;;;;;;5033284;28;19920;-69
2022/02/26 09:15:13;;;;;;;;;;;;;;;;;;5070754;28;19917;-69
2022/02/26 09:17:39;;;;;;;;;;;;;;;;;;5071220;28;19913;-68
2022/02/26 09:20:05;;;;;;;;;;;;;;;;;;5070944;28;19963;-71
2022/02/26 09:22:31;;;;;;;;;;;;;;;;;;5070620;28;19908;-69
2022/02/26 09:24:57;;;;;;;;;;;;;;;;;;5070879;28;19935;-69
2022/02/26 09:27:23;;;;;;;;;;;;;;;;;;5070905;28;19944;-69
2022/02/26 09:29:49;;;;;;;;;;;;;;;;;;5069105;28;19970;-69
2022/02/26 09:32:15;;;;;;;;;;;;;;;;;;5070775;28;20003;-69
2022/02/26 09:34:41;;;;;;;;;;;;;;;;;;5070637;28;20003;-69
2022/02/26 09:37:07;;;;;;;;;;;;;;;;;;5070666;28;20377;-69
2022/02/26 09:39:58;;;;;;;;;;;;;;;;;;5091721;27;19916;-68
2022/02/26 09:44:11;;;;;;;;;;;;;;;;;;5091390;27;19918;-69
2022/02/26 09:46:37;;;;;;;;;;;;;;;;;;5091215;28;19959;-69
2022/02/26 09:49:03;;;;;;;;;;;;;;;;;;5091147;28;19908;-70
2022/02/26 09:51:30;;;;;;;;;;;;;;;;;;5090817;28;20007;-70
2022/02/26 09:53:56;;;;;;;;;;;;;;;;;;5091142;28;19948;-69
2022/02/26 09:56:22;;;;;;;;;;;;;;;;;;5091132;28;19932;-69
2022/02/26 09:58:48;;;;;;;;;;;;;;;;;;5090818;28;19908;-69
2022/02/26 10:01:14;;;;;;;;;;;;;;;;;;5091188;28;20007;-70
2022/02/26 10:03:40;;;;;;;;;;;;;;;;;;5089556;28;19927;-69
2022/02/26 10:06:07;;;;;;;;;;;;;;;;;;5090521;28;19948;-70
2022/02/26 10:08:33;;;;;;;;;;;;;;;;;;5090825;28;19997;-69
2022/02/26 10:10:59;;;;;;;;;;;;;;;;;;5090762;28;20327;-69
2022/02/26 10:13:25;;;;;;;;;;;;;;;;;;5089168;28;19915;-70
2022/02/26 10:15:51;;;;;;;;;;;;;;;;;;5090754;28;19913;-70
2022/02/26 10:18:50;;;;;;;;;;;;;;;;;;5112120;27;20291;-71
2022/02/26 10:21:16;;;;;;;;;;;;;;;;;;5111715;28;19918;-71
2022/02/26 10:24:28;;;;;;;;;;;;;;;;;;5132051;27;20002;-69
2022/02/26 10:28:22;;;;;;;;;;;;;;;;;;5153218;27;19998;-69
2022/02/26 10:31:46;;;;;;;;;;;;;;;;;;5091583;27;19919;-69
2022/02/26 10:34:12;;;;;;;;;;;;;;;;;;5091004;28;20384;-68
2022/02/26 10:36:38;;;;;;;;;;;;;;;;;;5091329;28;19955;-68
2022/02/26 10:39:04;;;;;;;;;;;;;;;;;;5091259;28;20313;-70
2022/02/26 10:41:30;;;;;;;;;;;;;;;;;;5090924;28;19909;-70
2022/02/26 10:43:57;;;;;;;;;;;;;;;;;;5091628;28;19916;-70
2022/02/26 10:46:23;;;;;;;;;;;;;;;;;;5091212;28;19934;-69
2022/02/26 10:50:06;;;;;;;;;;;;;;;;;;5153313;27;20006;-69
2022/02/26 10:52:32;;;;;;;;;;;;;;;;;;5134685;27;19943;-71
2022/02/26 10:55:00;;;;;;;;;;;;;;;;;;5152546;27;19953;-69
2022/02/26 10:59:52;;;;;;;;;;;;;;;;;;5091548;27;19916;-70
2022/02/26 11:02:28;;;;;;;;;;;;;;;;;;5090846;28;20003;-69
2022/02/26 11:04:54;;;;;;;;;;;;;;;;;;5091152;28;19908;-69
2022/02/26 11:09:45;;;;;;;;;;;;;;;;;;5111431;27;20380;-70
2022/02/26 11:12:11;;;;;;;;;;;;;;;;;;5111957;28;20302;-70
2022/02/26 11:14:37;;;;;;;;;;;;;;;;;;5111895;28;19962;-70
2022/02/26 11:17:03;;;;;;;;;;;;;;;;;;5111276;28;19939;-70
2022/02/26 11:19:32;;;;;;;;;;;;;;;;;;5111744;28;19911;-70
2022/02/26 11:24:25;;;;;;;;;;;;;;;;;;5091267;28;20365;-69
2022/02/26 11:26:51;;;;;;;;;;;;;;;;;;5091431;28;20002;-69
2022/02/26 11:30:01;;;;;;;;;;;;;;;;;;5091109;27;19917;-68
2022/02/26 11:32:28;;;;;;;;;;;;;;;;;;5091204;28;20003;-68
2022/02/26 11:34:54;;;;;;;;;;;;;;;;;;5091227;28;19916;-68
2022/02/26 11:37:20;;;;;;;;;;;;;;;;;;5090743;28;20292;-69
2022/02/26 11:39:46;;;;;;;;;;;;;;;;;;5091095;28;19948;-69
2022/02/26 11:45:56;;;;;;;;;;;;;;;;;;5112141;27;19922;-68
2022/02/26 11:48:22;;;;;;;;;;;;;;;;;;5111667;28;20355;-70
2022/02/26 11:50:48;;;;;;;;;;;;;;;;;;5111414;28;19991;-69
2022/02/26 11:54:55;;;;;;;;;;;;;;;;;;5112329;27;19922;-68
2022/02/26 11:57:21;;;;;;;;;;;;;;;;;;5111316;28;20003;-69
2022/02/26 11:59:50;;;;;;;;;;;;;;;;;;5111526;28;20006;-68
2022/02/26 12:04:46;;;;;;;;;;;;;;;;;;5152689;27;20350;-69
2022/02/26 12:07:12;;;;;;;;;;;;;;;;;;5153056;27;20366;-68
2022/02/26 12:09:38;;;;;;;;;;;;;;;;;;5152528;27;19907;-69
2022/02/26 12:12:04;;;;;;;;;;;;;;;;;;5133877;27;20357;-69
2022/02/26 12:14:30;;;;;;;;;;;;;;;;;;5152631;27;19908;-68
2022/02/26 12:17:30;;;;;;;;;;;;;;;;;;5112263;27;19922;-69
2022/02/26 12:19:56;;;;;;;;;;;;;;;;;;5111299;28;20011;-68
2022/02/26 12:22:22;;;;;;;;;;;;;;;;;;5111596;28;19990;-68
2022/02/26 12:24:48;;;;;;;;;;;;;;;;;;5111607;28;19915;-69
2022/02/26 12:27:14;;;;;;;;;;;;;;;;;;5111108;28;19908;-68
2022/02/26 12:29:40;;;;;;;;;;;;;;;;;;5111462;28;20407;-68
2022/02/26 12:32:06;;;;;;;;;;;;;;;;;;5109785;28;20296;-69
2022/02/26 12:34:32;;;;;;;;;;;;;;;;;;5112003;28;19915;-68
2022/02/26 12:36:58;;;;;;;;;;;;;;;;;;5111251;28;19973;-68
2022/02/26 12:39:24;;;;;;;;;;;;;;;;;;5110837;28;19991;-68
2022/02/26 12:43:14;;;;;;;;;;;;;;;;;;5112315;27;19922;-68
2022/02/26 12:45:40;;;;;;;;;;;;;;;;;;5111891;28;20354;-69
2022/02/26 12:48:06;;;;;;;;;;;;;;;;;;5111286;28;19995;-68
2022/02/26 12:50:32;;;;;;;;;;;;;;;;;;5111565;28;20003;-68
2022/02/26 12:52:58;;;;;;;;;;;;;;;;;;5111934;28;20277;-68
2022/02/26 12:55:23;;;;;;;;;;;;;;;;;;5111076;28;19919;-68
2022/02/26 12:57:49;;;;;;;;;;;;;;;;;;5111499;28;19932;-71
2022/02/26 13:00:15;;;;;;;;;;;;;;;;;;5111016;28;19908;-69
2022/02/26 13:02:42;;;;;;;;;;;;;;;;;;5111329;28;20395;-68
2022/02/26 13:05:08;;;;;;;;;;;;;;;;;;5109867;28;19908;-68
2022/02/26 13:07:33;;;;;;;;;;;;;;;;;;5110781;28;20003;-68
2022/02/26 13:09:59;;;;;;;;;;;;;;;;;;5111250;28;19915;-68
2022/02/26 13:12:25;;;;;;;;;;;;;;;;;;5111125;28;20365;-68
2022/02/26 13:14:52;;;;;;;;;;;;;;;;;;5110704;28;19908;-69
2022/02/26 13:17:18;;;;;;;;;;;;;;;;;;5111424;28;19911;-69
2022/02/26 13:19:44;;;;;;;;;;;;;;;;;;5111006;28;19912;-69
2022/02/26 13:22:10;;;;;;;;;;;;;;;;;;5110455;28;20010;-69
2022/02/26 13:24:36;;;;;;;;;;;;;;;;;;5110894;28;19915;-69
2022/02/26 13:27:02;;;;;;;;;;;;;;;;;;5110834;28;19915;-69
2022/02/26 13:29:28;;;;;;;;;;;;;;;;;;5110459;28;19995;-69
2022/02/26 13:31:54;;;;;;;;;;;;;;;;;;5110680;28;19912;-69
2022/02/26 13:34:20;;;;;;;;;;;;;;;;;;5111393;28;19915;-69
2022/02/26 13:36:45;;;;;;;;;;;;;;;;;;5110276;28;20332;-69
2022/02/26 13:39:11;;;;;;;;;;;;;;;;;;5110728;28;19908;-69
2022/02/26 13:41:38;;;;;;;;;;;;;;;;;;5110196;28;19927;-69
2022/02/26 13:47:51;;;;;;;;;;;;;;;;;;5091424;28;19919;-69
2022/02/26 13:50:17;;;;;;;;;;;;;;;;;;5090834;28;19939;-69
2022/02/26 13:52:43;;;;;;;;;;;;;;;;;;5091545;28;19909;-69
2022/02/26 13:55:09;;;;;;;;;;;;;;;;;;5091153;28;20369;-69
2022/02/26 13:57:35;;;;;;;;;;;;;;;;;;5090810;28;19908;-70
2022/02/26 14:00:01;;;;;;;;;;;;;;;;;;5091746;28;20390;-70
2022/02/26 14:02:27;;;;;;;;;;;;;;;;;;5091075;28;19908;-70
2022/02/26 14:05:20;;;;;;;;;;;;;;;;;;5070910;28;19919;-69
2022/02/26 14:07:49;;;;;;;;;;;;;;;;;;5071255;28;20403;-69
2022/02/26 14:10:15;;;;;;;;;;;;;;;;;;5071039;28;19975;-68
2022/02/26 14:12:41;;;;;;;;;;;;;;;;;;5070625;28;20381;-69
2022/02/26 14:15:08;;;;;;;;;;;;;;;;;;5070849;28;19916;-70
2022/02/26 14:17:34;;;;;;;;;;;;;;;;;;5071108;28;19912;-70
2022/02/26 14:20:00;;;;;;;;;;;;;;;;;;5070860;28;19915;-70
2022/02/26 14:22:26;;;;;;;;;;;;;;;;;;5070869;28;19916;-69
2022/02/26 14:24:52;;;;;;;;;;;;;;;;;;5070327;28;19924;-70
2022/02/26 14:27:18;;;;;;;;;;;;;;;;;;5070726;28;20407;-69
2022/02/26 14:29:44;;;;;;;;;;;;;;;;;;5070861;28;19970;-69
2022/02/26 14:32:10;;;;;;;;;;;;;;;;;;5070102;28;19960;-69
2022/02/26 14:34:36;;;;;;;;;;;;;;;;;;5070529;28;19915;-69
2022/02/26 14:37:02;;;;;;;;;;;;;;;;;;5070547;28;20365;-70
2022/02/26 14:39:28;;;;;;;;;;;;;;;;;;5070060;28;19908;-70
2022/02/26 14:42:13;;;;;;;;;;;;;;;;;;5071376;28;19913;-69
2022/02/26 14:44:39;;;;;;;;;;;;;;;;;;5069887;28;20016;-69
2022/02/26 14:47:05;;;;;;;;;;;;;;;;;;5070543;28;20003;-69
2022/02/26 14:49:31;;;;;;;;;;;;;;;;;;5070936;28;19931;-69
2022/02/26 14:51:57;;;;;;;;;;;;;;;;;;5070731;28;19909;-69
2022/02/26 14:54:23;;;;;;;;;;;;;;;;;;5070430;28;20007;-69
2022/02/26 14:56:49;;;;;;;;;;;;;;;;;;5071151;28;19909;-69
2022/02/26 14:59:15;;;;;;;;;;;;;;;;;;5070879;28;20007;-69
2022/02/26 15:01:41;;;;;;;;;;;;;;;;;;5070385;28;19916;-69
2022/02/26 15:04:07;;;;;;;;;;;;;;;;;;5070735;28;19909;-69
2022/02/26 15:06:33;;;;;;;;;;;;;;;;;;5070581;28;20008;-69
2022/02/26 15:08:59;;;;;;;;;;;;;;;;;;5070103;28;20070;-69
2022/02/26 15:11:25;;;;;;;;;;;;;;;;;;5070859;28;19916;-69
2022/02/26 15:13:51;;;;;;;;;;;;;;;;;;5070302;28;19961;-70
2022/02/26 15:16:17;;;;;;;;;;;;;;;;;;5070506;28;19948;-70
2022/02/26 15:18:43;;;;;;;;;;;;;;;;;;5070425;28;19963;-70
2022/02/26 15:21:09;;;;;;;;;;;;;;;;;;5070177;28;19917;-70
2022/02/26 15:24:58;;;;;;;;;;;;;;;;;;5091482;27;19919;-69
2022/02/26 15:27:45;;;;;;;;;;;;;;;;;;5111864;27;19915;-69
2022/02/26 15:30:11;;;;;;;;;;;;;;;;;;5111292;28;19916;-69
2022/02/26 15:32:38;;;;;;;;;;;;;;;;;;5110332;28;19993;-69
2022/02/26 15:35:04;;;;;;;;;;;;;;;;;;5111162;28;19928;-69
2022/02/26 15:37:30;;;;;;;;;;;;;;;;;;5111499;28;20000;-70
2022/02/26 15:42:10;;;;;;;;;;;;;;;;;;5131793;27;19911;-69
2022/02/26 15:44:36;;;;;;;;;;;;;;;;;;5132430;28;19918;-70
2022/02/26 15:47:23;;;;;;;;;;;;;;;;;;5091777;27;19919;-69
2022/02/26 15:49:49;;;;;;;;;;;;;;;;;;5090838;28;20003;-68
2022/02/26 15:52:15;;;;;;;;;;;;;;;;;;5091196;28;19946;-68
2022/02/26 15:54:40;;;;;;;;;;;;;;;;;;5091065;28;20279;-68
2022/02/26 15:57:06;;;;;;;;;;;;;;;;;;5091123;28;19915;-71
2022/02/26 15:59:32;;;;;;;;;;;;;;;;;;5091541;28;19908;-70
2022/02/26 16:01:59;;;;;;;;;;;;;;;;;;5091038;28;19947;-70
2022/02/26 16:04:25;;;;;;;;;;;;;;;;;;5090398;28;19908;-70
2022/02/26 16:12:04;;;;;;;;;;;;;;;;;;5111194;27;19912;-68
2022/02/26 16:16:17;;;;;;;;;;;;;;;;;;5091391;27;19913;-69
2022/02/26 16:20:05;;;;;;;;;;;;;;;;;;5091361;27;19912;-71
2022/02/26 16:22:31;;;;;;;;;;;;;;;;;;5091270;28;19938;-70
2022/02/26 16:26:38;;;;;;;;;;;;;;;;;;5112438;27;20295;-70
2022/02/26 16:29:04;;;;;;;;;;;;;;;;;;5111938;28;19912;-70
2022/02/26 16:33:26;;;;;;;;;;;;;;;;;;5111424;27;19922;-70
2022/02/26 16:35:52;;;;;;;;;;;;;;;;;;5111775;28;19912;-70
2022/02/26 16:38:18;;;;;;;;;;;;;;;;;;5111351;28;19954;-70
2022/02/26 16:41:27;;;;;;;;;;;;;;;;;;5112443;27;19922;-69
2022/02/26 16:44:29;;;;;;;;;;;;;;;;;;5071793;28;19919;-70
2022/02/26 16:46:55;;;;;;;;;;;;;;;;;;5069499;28;19917;-71
2022/02/26 16:49:21;;;;;;;;;;;;;;;;;;5071134;28;19956;-70
2022/02/26 16:51:47;;;;;;;;;;;;;;;;;;5071049;28;19915;-68
2022/02/26 16:54:13;;;;;;;;;;;;;;;;;;5070625;28;19908;-69
2022/02/26 16:56:39;;;;;;;;;;;;;;;;;;5071002;28;19912;-69
2022/02/26 16:59:05;;;;;;;;;;;;;;;;;;5069664;28;20379;-69
2022/02/26 17:01:31;;;;;;;;;;;;;;;;;;5069220;28;19909;-71
2022/02/26 17:03:57;;;;;;;;;;;;;;;;;;5070001;28;20403;-70
2022/02/26 17:06:23;;;;;;;;;;;;;;;;;;5070419;28;19935;-70
2022/02/26 17:08:49;;;;;;;;;;;;;;;;;;5071200;28;20311;-70
2022/02/26 17:11:15;;;;;;;;;;;;;;;;;;5070674;28;19945;-70
2022/02/26 17:13:41;;;;;;;;;;;;;;;;;;5070262;28;19917;-71
2022/02/26 17:16:07;;;;;;;;;;;;;;;;;;5070353;28;19964;-70
2022/02/26 17:18:33;;;;;;;;;;;;;;;;;;5070349;28;19948;-70
2022/02/26 17:20:59;;;;;;;;;;;;;;;;;;5070126;28;19936;-70
2022/02/26 17:23:25;;;;;;;;;;;;;;;;;;5070291;28;19917;-70
2022/02/26 17:25:51;;;;;;;;;;;;;;;;;;5070402;28;19915;-70
2022/02/26 17:28:17;;;;;;;;;;;;;;;;;;5069994;28;19992;-71
2022/02/26 17:30:43;;;;;;;;;;;;;;;;;;5070252;28;19944;-70